sensor_id;sensor_type;location;lat;lon;timestamp;P1;durP1;ratioP1;P2;durP2;ratioP2
52035;SDS011;38046;49.448;32.074;2022-09-27T00:00:42;4.07;;;3.67;;
52035;SDS011;38046;49.448;32.074;2022-09-27T00:03:11;4.10;;;3.67;;
52035;SDS011;38046;49.448;32.074;2022-09-27T00:05:37;4.32;;;3.92;;
52035;SDS011;38046;49.448;32.074;2022-09-27T00:08:04;3.70;;;3.35;;
52035;SDS011;38046;49.448;32.074;2022-09-27T00:10:30;4.10;;;3.58;;
52035;SDS011;38046;49.448;32.074;2022-09-27T00:12:56;4.38;;;3.75;;
52035;SDS011;38046;49.448;32.074;2022-09-27T00:15:22;3.97;;;3.65;;
52035;SDS011;38046;49.448;32.074;2022-09-27T00:17:48;3.88;;;3.47;;
52035;SDS011;38046;49.448;32.074;2022-09-27T00:20:16;4.65;;;3.67;;
52035;SDS011;38046;49.448;32.074;2022-09-27T00:22:44;3.83;;;3.47;;
52035;SDS011;38046;49.448;32.074;2022-09-27T00:25:12;4.30;;;3.85;;
52035;SDS011;38046;49.448;32.074;2022-09-27T00:27:39;5.30;;;3.65;;
52035;SDS011;38046;49.448;32.074;2022-09-27T00:30:05;4.35;;;3.95;;
52035;SDS011;38046;49.448;32.074;2022-09-27T00:32:31;4.10;;;3.70;;
52035;SDS011;38046;49.448;32.074;2022-09-27T00:34:56;4.43;;;3.90;;
52035;SDS011;38046;49.448;32.074;2022-09-27T00:37:22;4.68;;;3.95;;
52035;SDS011;38046;49.448;32.074;2022-09-27T00:39:48;5.75;;;4.30;;
52035;SDS011;38046;49.448;32.074;2022-09-27T00:42:13;6.60;;;5.05;;
52035;SDS011;38046;49.448;32.074;2022-09-27T00:47:48;12.38;;;7.63;;
52035;SDS011;38046;49.448;32.074;2022-09-27T00:55:05;24.17;;;11.00;;
52035;SDS011;38046;49.448;32.074;2022-09-27T00:57:35;20.20;;;10.52;;
52035;SDS011;38046;49.448;32.074;2022-09-27T01:00:06;21.33;;;11.43;;
52035;SDS011;38046;49.448;32.074;2022-09-27T01:02:34;20.17;;;11.02;;
52035;SDS011;38046;49.448;32.074;2022-09-27T01:05:06;20.02;;;10.95;;
52035;SDS011;38046;49.448;32.074;2022-09-27T01:07:33;17.75;;;10.75;;
52035;SDS011;38046;49.448;32.074;2022-09-27T01:09:59;21.25;;;10.38;;
52035;SDS011;38046;49.448;32.074;2022-09-27T01:20:54;13.43;;;7.88;;
52035;SDS011;38046;49.448;32.074;2022-09-27T01:29:10;12.82;;;7.82;;
52035;SDS011;38046;49.448;32.074;2022-09-27T01:36:55;17.73;;;9.05;;
52035;SDS011;38046;49.448;32.074;2022-09-27T01:42:00;12.32;;;7.35;;
52035;SDS011;38046;49.448;32.074;2022-09-27T01:44:29;10.80;;;6.80;;
52035;SDS011;38046;49.448;32.074;2022-09-27T01:47:16;10.90;;;6.70;;
52035;SDS011;38046;49.448;32.074;2022-09-27T01:49:47;12.27;;;7.78;;
52035;SDS011;38046;49.448;32.074;2022-09-27T01:52:19;8.88;;;6.60;;
52035;SDS011;38046;49.448;32.074;2022-09-27T01:54:52;10.35;;;6.13;;
52035;SDS011;38046;49.448;32.074;2022-09-27T01:57:21;7.18;;;5.60;;
52035;SDS011;38046;49.448;32.074;2022-09-27T02:00:09;9.10;;;5.57;;
52035;SDS011;38046;49.448;32.074;2022-09-27T02:02:41;6.95;;;5.18;;
52035;SDS011;38046;49.448;32.074;2022-09-27T02:05:14;6.20;;;5.03;;
52035;SDS011;38046;49.448;32.074;2022-09-27T02:10:37;5.65;;;4.47;;
52035;SDS011;38046;49.448;32.074;2022-09-27T02:15:51;5.88;;;4.70;;
52035;SDS011;38046;49.448;32.074;2022-09-27T02:18:50;5.43;;;4.47;;
52035;SDS011;38046;49.448;32.074;2022-09-27T02:21:45;5.88;;;4.65;;
52035;SDS011;38046;49.448;32.074;2022-09-27T02:24:19;6.65;;;5.03;;
52035;SDS011;38046;49.448;32.074;2022-09-27T02:26:50;6.13;;;5.00;;
52035;SDS011;38046;49.448;32.074;2022-09-27T02:29:28;6.10;;;5.13;;
52035;SDS011;38046;49.448;32.074;2022-09-27T02:32:03;6.13;;;4.85;;
52035;SDS011;38046;49.448;32.074;2022-09-27T02:34:30;7.68;;;5.53;;
52035;SDS011;38046;49.448;32.074;2022-09-27T02:36:58;7.82;;;5.30;;
52035;SDS011;38046;49.448;32.074;2022-09-27T02:39:24;6.28;;;5.00;;
52035;SDS011;38046;49.448;32.074;2022-09-27T02:41:51;7.10;;;5.60;;
52035;SDS011;38046;49.448;32.074;2022-09-27T02:44:16;10.77;;;6.65;;
52035;SDS011;38046;49.448;32.074;2022-09-27T02:57:10;23.52;;;12.77;;
52035;SDS011;38046;49.448;32.074;2022-09-27T03:00:02;20.13;;;12.32;;
52035;SDS011;38046;49.448;32.074;2022-09-27T03:05:14;14.52;;;9.00;;
52035;SDS011;38046;49.448;32.074;2022-09-27T03:07:44;10.05;;;7.88;;
52035;SDS011;38046;49.448;32.074;2022-09-27T03:10:17;9.63;;;7.35;;
52035;SDS011;38046;49.448;32.074;2022-09-27T03:12:45;8.02;;;6.45;;
52035;SDS011;38046;49.448;32.074;2022-09-27T03:15:11;7.30;;;6.22;;
52035;SDS011;38046;49.448;32.074;2022-09-27T03:17:37;7.13;;;5.88;;
52035;SDS011;38046;49.448;32.074;2022-09-27T03:20:03;6.32;;;5.43;;
52035;SDS011;38046;49.448;32.074;2022-09-27T03:22:29;8.10;;;6.28;;
52035;SDS011;38046;49.448;32.074;2022-09-27T03:24:54;6.85;;;6.15;;
52035;SDS011;38046;49.448;32.074;2022-09-27T03:27:21;6.63;;;5.80;;
52035;SDS011;38046;49.448;32.074;2022-09-27T03:29:47;6.50;;;5.72;;
52035;SDS011;38046;49.448;32.074;2022-09-27T03:32:12;7.60;;;6.03;;
52035;SDS011;38046;49.448;32.074;2022-09-27T03:34:38;6.13;;;5.47;;
52035;SDS011;38046;49.448;32.074;2022-09-27T03:37:04;6.50;;;5.75;;
52035;SDS011;38046;49.448;32.074;2022-09-27T03:39:29;7.57;;;6.75;;
52035;SDS011;38046;49.448;32.074;2022-09-27T03:41:55;7.40;;;6.70;;
52035;SDS011;38046;49.448;32.074;2022-09-27T03:44:21;7.20;;;6.07;;
52035;SDS011;38046;49.448;32.074;2022-09-27T03:46:47;8.43;;;7.13;;
52035;SDS011;38046;49.448;32.074;2022-09-27T03:49:12;7.68;;;6.85;;
52035;SDS011;38046;49.448;32.074;2022-09-27T03:51:38;7.97;;;7.18;;
52035;SDS011;38046;49.448;32.074;2022-09-27T03:54:04;8.07;;;7.22;;
52035;SDS011;38046;49.448;32.074;2022-09-27T03:56:29;8.63;;;7.18;;
52035;SDS011;38046;49.448;32.074;2022-09-27T03:58:55;8.98;;;7.72;;
52035;SDS011;38046;49.448;32.074;2022-09-27T04:01:21;8.50;;;7.55;;
52035;SDS011;38046;49.448;32.074;2022-09-27T04:03:46;8.35;;;7.38;;
52035;SDS011;38046;49.448;32.074;2022-09-27T04:06:12;7.63;;;6.85;;
52035;SDS011;38046;49.448;32.074;2022-09-27T04:08:38;8.45;;;7.57;;
52035;SDS011;38046;49.448;32.074;2022-09-27T04:11:04;7.28;;;6.55;;
52035;SDS011;38046;49.448;32.074;2022-09-27T04:13:31;6.75;;;6.05;;
52035;SDS011;38046;49.448;32.074;2022-09-27T04:15:56;7.80;;;7.00;;
52035;SDS011;38046;49.448;32.074;2022-09-27T04:18:22;7.88;;;6.85;;
52035;SDS011;38046;49.448;32.074;2022-09-27T04:20:48;7.75;;;6.90;;
52035;SDS011;38046;49.448;32.074;2022-09-27T04:23:13;8.07;;;7.15;;
52035;SDS011;38046;49.448;32.074;2022-09-27T04:25:39;8.38;;;6.65;;
52035;SDS011;38046;49.448;32.074;2022-09-27T04:28:05;7.30;;;6.50;;
52035;SDS011;38046;49.448;32.074;2022-09-27T04:30:30;6.13;;;5.53;;
52035;SDS011;38046;49.448;32.074;2022-09-27T04:32:56;7.13;;;6.43;;
52035;SDS011;38046;49.448;32.074;2022-09-27T04:35:22;7.03;;;6.32;;
52035;SDS011;38046;49.448;32.074;2022-09-27T04:38:06;8.05;;;6.90;;
52035;SDS011;38046;49.448;32.074;2022-09-27T04:40:35;7.40;;;6.50;;
52035;SDS011;38046;49.448;32.074;2022-09-27T04:43:01;8.80;;;6.65;;
52035;SDS011;38046;49.448;32.074;2022-09-27T04:45:28;7.60;;;6.80;;
52035;SDS011;38046;49.448;32.074;2022-09-27T04:47:54;7.70;;;6.88;;
52035;SDS011;38046;49.448;32.074;2022-09-27T04:50:20;7.68;;;6.88;;
52035;SDS011;38046;49.448;32.074;2022-09-27T04:52:52;7.90;;;7.10;;
52035;SDS011;38046;49.448;32.074;2022-09-27T04:55:18;8.00;;;6.45;;
52035;SDS011;38046;49.448;32.074;2022-09-27T04:57:46;7.50;;;6.57;;
52035;SDS011;38046;49.448;32.074;2022-09-27T05:00:12;7.50;;;6.63;;
52035;SDS011;38046;49.448;32.074;2022-09-27T05:02:39;7.88;;;6.32;;
52035;SDS011;38046;49.448;32.074;2022-09-27T05:05:06;8.45;;;6.90;;
52035;SDS011;38046;49.448;32.074;2022-09-27T05:07:32;7.35;;;6.60;;
52035;SDS011;38046;49.448;32.074;2022-09-27T05:09:59;6.70;;;5.13;;
52035;SDS011;38046;49.448;32.074;2022-09-27T05:12:24;7.43;;;5.97;;
52035;SDS011;38046;49.448;32.074;2022-09-27T05:14:51;7.20;;;6.38;;
52035;SDS011;38046;49.448;32.074;2022-09-27T05:17:17;7.95;;;7.15;;
52035;SDS011;38046;49.448;32.074;2022-09-27T05:19:44;7.97;;;7.05;;
52035;SDS011;38046;49.448;32.074;2022-09-27T05:22:10;9.13;;;7.10;;
52035;SDS011;38046;49.448;32.074;2022-09-27T05:24:35;9.43;;;7.20;;
52035;SDS011;38046;49.448;32.074;2022-09-27T05:27:02;9.23;;;7.25;;
52035;SDS011;38046;49.448;32.074;2022-09-27T05:29:30;8.52;;;7.63;;
52035;SDS011;38046;49.448;32.074;2022-09-27T05:31:56;8.25;;;7.00;;
52035;SDS011;38046;49.448;32.074;2022-09-27T05:34:22;8.00;;;7.00;;
52035;SDS011;38046;49.448;32.074;2022-09-27T05:36:48;8.45;;;7.15;;
52035;SDS011;38046;49.448;32.074;2022-09-27T05:39:14;8.13;;;6.45;;
52035;SDS011;38046;49.448;32.074;2022-09-27T05:41:41;8.68;;;7.38;;
52035;SDS011;38046;49.448;32.074;2022-09-27T05:44:07;7.43;;;6.65;;
52035;SDS011;38046;49.448;32.074;2022-09-27T05:46:33;7.88;;;6.93;;
52035;SDS011;38046;49.448;32.074;2022-09-27T05:48:59;7.47;;;6.35;;
52035;SDS011;38046;49.448;32.074;2022-09-27T05:51:24;6.68;;;5.97;;
52035;SDS011;38046;49.448;32.074;2022-09-27T05:53:50;7.22;;;6.40;;
52035;SDS011;38046;49.448;32.074;2022-09-27T05:56:16;6.63;;;5.90;;
52035;SDS011;38046;49.448;32.074;2022-09-27T05:58:42;7.57;;;6.15;;
52035;SDS011;38046;49.448;32.074;2022-09-27T06:01:08;7.50;;;6.35;;
52035;SDS011;38046;49.448;32.074;2022-09-27T06:03:34;7.20;;;6.28;;
52035;SDS011;38046;49.448;32.074;2022-09-27T06:06:01;8.60;;;6.70;;
52035;SDS011;38046;49.448;32.074;2022-09-27T06:08:34;7.50;;;6.43;;
52035;SDS011;38046;49.448;32.074;2022-09-27T06:11:01;8.53;;;6.90;;
52035;SDS011;38046;49.448;32.074;2022-09-27T06:15:58;7.55;;;6.68;;
52035;SDS011;38046;49.448;32.074;2022-09-27T06:18:24;7.50;;;6.65;;
52035;SDS011;38046;49.448;32.074;2022-09-27T06:20:50;8.88;;;6.70;;
52035;SDS011;38046;49.448;32.074;2022-09-27T06:23:16;7.10;;;6.20;;
52035;SDS011;38046;49.448;32.074;2022-09-27T06:25:44;7.15;;;6.43;;
52035;SDS011;38046;49.448;32.074;2022-09-27T06:28:11;7.65;;;6.85;;
52035;SDS011;38046;49.448;32.074;2022-09-27T06:30:39;7.65;;;6.68;;
52035;SDS011;38046;49.448;32.074;2022-09-27T06:33:13;8.38;;;7.47;;
52035;SDS011;38046;49.448;32.074;2022-09-27T06:35:40;7.45;;;6.40;;
52035;SDS011;38046;49.448;32.074;2022-09-27T06:38:07;8.30;;;6.20;;
52035;SDS011;38046;49.448;32.074;2022-09-27T06:40:35;8.55;;;6.95;;
52035;SDS011;38046;49.448;32.074;2022-09-27T06:43:04;7.68;;;6.88;;
52035;SDS011;38046;49.448;32.074;2022-09-27T06:45:34;8.00;;;7.07;;
52035;SDS011;38046;49.448;32.074;2022-09-27T06:48:01;8.73;;;7.00;;
52035;SDS011;38046;49.448;32.074;2022-09-27T06:50:28;8.43;;;7.55;;
52035;SDS011;38046;49.448;32.074;2022-09-27T06:52:58;9.63;;;8.63;;
52035;SDS011;38046;49.448;32.074;2022-09-27T06:55:24;8.85;;;7.90;;
52035;SDS011;38046;49.448;32.074;2022-09-27T06:57:53;9.85;;;8.27;;
52035;SDS011;38046;49.448;32.074;2022-09-27T07:00:38;8.57;;;7.50;;
52035;SDS011;38046;49.448;32.074;2022-09-27T07:03:04;9.25;;;7.72;;
52035;SDS011;38046;49.448;32.074;2022-09-27T07:05:30;8.20;;;7.38;;
52035;SDS011;38046;49.448;32.074;2022-09-27T07:07:56;7.90;;;7.07;;
52035;SDS011;38046;49.448;32.074;2022-09-27T07:10:26;7.93;;;6.75;;
52035;SDS011;38046;49.448;32.074;2022-09-27T07:12:54;8.52;;;6.82;;
52035;SDS011;38046;49.448;32.074;2022-09-27T07:15:20;7.22;;;6.40;;
52035;SDS011;38046;49.448;32.074;2022-09-27T07:17:47;8.77;;;7.70;;
52035;SDS011;38046;49.448;32.074;2022-09-27T07:20:22;8.93;;;7.28;;
52035;SDS011;38046;49.448;32.074;2022-09-27T07:22:49;9.10;;;7.80;;
52035;SDS011;38046;49.448;32.074;2022-09-27T07:25:14;8.00;;;7.07;;
52035;SDS011;38046;49.448;32.074;2022-09-27T07:27:40;8.75;;;7.82;;
52035;SDS011;38046;49.448;32.074;2022-09-27T07:30:06;9.05;;;7.57;;
52035;SDS011;38046;49.448;32.074;2022-09-27T07:32:33;8.70;;;7.20;;
52035;SDS011;38046;49.448;32.074;2022-09-27T07:35:01;7.97;;;6.93;;
52035;SDS011;38046;49.448;32.074;2022-09-27T07:37:30;7.80;;;6.85;;
52035;SDS011;38046;49.448;32.074;2022-09-27T07:42:25;8.88;;;7.18;;
52035;SDS011;38046;49.448;32.074;2022-09-27T07:44:54;7.35;;;6.25;;
52035;SDS011;38046;49.448;32.074;2022-09-27T07:47:21;7.80;;;7.00;;
52035;SDS011;38046;49.448;32.074;2022-09-27T07:49:51;8.32;;;6.75;;
52035;SDS011;38046;49.448;32.074;2022-09-27T07:52:17;8.15;;;7.15;;
52035;SDS011;38046;49.448;32.074;2022-09-27T07:54:45;7.63;;;6.05;;
52035;SDS011;38046;49.448;32.074;2022-09-27T07:57:11;7.75;;;6.72;;
52035;SDS011;38046;49.448;32.074;2022-09-27T07:59:38;9.02;;;6.80;;
52035;SDS011;38046;49.448;32.074;2022-09-27T08:02:04;7.07;;;5.93;;
52035;SDS011;38046;49.448;32.074;2022-09-27T08:04:29;8.00;;;6.20;;
52035;SDS011;38046;49.448;32.074;2022-09-27T08:06:55;7.65;;;6.13;;
52035;SDS011;38046;49.448;32.074;2022-09-27T08:09:20;6.43;;;5.75;;
52035;SDS011;38046;49.448;32.074;2022-09-27T08:11:46;5.97;;;5.38;;
52035;SDS011;38046;49.448;32.074;2022-09-27T08:14:12;6.45;;;5.80;;
52035;SDS011;38046;49.448;32.074;2022-09-27T08:16:38;7.68;;;6.35;;
52035;SDS011;38046;49.448;32.074;2022-09-27T08:19:05;7.45;;;5.70;;
52035;SDS011;38046;49.448;32.074;2022-09-27T08:21:31;6.32;;;5.60;;
52035;SDS011;38046;49.448;32.074;2022-09-27T08:23:57;6.65;;;5.95;;
52035;SDS011;38046;49.448;32.074;2022-09-27T08:26:23;7.03;;;5.53;;
52035;SDS011;38046;49.448;32.074;2022-09-27T08:28:51;7.45;;;6.43;;
52035;SDS011;38046;49.448;32.074;2022-09-27T08:31:17;7.00;;;5.57;;
52035;SDS011;38046;49.448;32.074;2022-09-27T08:33:42;6.70;;;5.82;;
52035;SDS011;38046;49.448;32.074;2022-09-27T08:36:11;6.13;;;5.25;;
52035;SDS011;38046;49.448;32.074;2022-09-27T08:38:37;6.15;;;5.55;;
52035;SDS011;38046;49.448;32.074;2022-09-27T08:41:37;6.70;;;5.13;;
52035;SDS011;38046;49.448;32.074;2022-09-27T08:49:39;6.15;;;5.55;;
52035;SDS011;38046;49.448;32.074;2022-09-27T08:52:07;7.40;;;5.95;;
52035;SDS011;38046;49.448;32.074;2022-09-27T08:54:40;5.72;;;5.13;;
52035;SDS011;38046;49.448;32.074;2022-09-27T08:57:11;6.55;;;5.57;;
52035;SDS011;38046;49.448;32.074;2022-09-27T08:59:42;5.78;;;5.18;;
52035;SDS011;38046;49.448;32.074;2022-09-27T09:02:21;6.53;;;5.82;;
52035;SDS011;38046;49.448;32.074;2022-09-27T09:05:10;7.13;;;6.28;;
52035;SDS011;38046;49.448;32.074;2022-09-27T09:07:46;6.47;;;5.68;;
52035;SDS011;38046;49.448;32.074;2022-09-27T09:24:30;5.88;;;5.13;;
52035;SDS011;38046;49.448;32.074;2022-09-27T09:29:56;5.13;;;4.63;;
52035;SDS011;38046;49.448;32.074;2022-09-27T09:35:17;5.28;;;4.78;;
52035;SDS011;38046;49.448;32.074;2022-09-27T09:38:03;5.90;;;5.30;;
52035;SDS011;38046;49.448;32.074;2022-09-27T09:40:39;5.80;;;5.03;;
52035;SDS011;38046;49.448;32.074;2022-09-27T09:43:17;6.72;;;4.80;;
52035;SDS011;38046;49.448;32.074;2022-09-27T09:46:19;4.78;;;4.28;;
52035;SDS011;38046;49.448;32.074;2022-09-27T09:48:59;5.65;;;5.03;;
52035;SDS011;38046;49.448;32.074;2022-09-27T09:51:37;5.20;;;4.55;;
52035;SDS011;38046;49.448;32.074;2022-09-27T09:59:46;6.05;;;5.18;;
52035;SDS011;38046;49.448;32.074;2022-09-27T10:02:24;6.00;;;5.10;;
52035;SDS011;38046;49.448;32.074;2022-09-27T10:05:00;5.87;;;5.17;;
52035;SDS011;38046;49.448;32.074;2022-09-27T10:07:26;6.22;;;5.00;;
52035;SDS011;38046;49.448;32.074;2022-09-27T10:09:55;6.07;;;5.07;;
52035;SDS011;38046;49.448;32.074;2022-09-27T10:12:24;5.70;;;4.93;;
52035;SDS011;38046;49.448;32.074;2022-09-27T10:14:50;4.88;;;4.30;;
52035;SDS011;38046;49.448;32.074;2022-09-27T10:17:20;5.55;;;4.68;;
52035;SDS011;38046;49.448;32.074;2022-09-27T10:19:50;4.63;;;4.22;;
52035;SDS011;38046;49.448;32.074;2022-09-27T10:27:36;5.57;;;4.65;;
52035;SDS011;38046;49.448;32.074;2022-09-27T10:30:26;6.78;;;5.00;;
52035;SDS011;38046;49.448;32.074;2022-09-27T10:32:52;7.90;;;5.93;;
52035;SDS011;38046;49.448;32.074;2022-09-27T10:35:37;5.80;;;5.07;;
52035;SDS011;38046;49.448;32.074;2022-09-27T10:38:49;5.97;;;5.07;;
52035;SDS011;38046;49.448;32.074;2022-09-27T10:40:55;5.40;;;4.40;;
52035;SDS011;38046;49.448;32.074;2022-09-27T10:46:25;5.72;;;4.60;;
52035;SDS011;38046;49.448;32.074;2022-09-27T10:49:36;5.72;;;4.50;;
52035;SDS011;38046;49.448;32.074;2022-09-27T10:51:45;5.55;;;4.72;;
52035;SDS011;38046;49.448;32.074;2022-09-27T10:54:19;5.45;;;4.40;;
52035;SDS011;38046;49.448;32.074;2022-09-27T10:57:30;5.50;;;4.63;;
52035;SDS011;38046;49.448;32.074;2022-09-27T11:00:33;6.72;;;5.22;;
52035;SDS011;38046;49.448;32.074;2022-09-27T11:02:53;5.28;;;4.78;;
52035;SDS011;38046;49.448;32.074;2022-09-27T11:07:54;6.03;;;4.38;;
52035;SDS011;38046;49.448;32.074;2022-09-27T11:18:17;6.47;;;4.95;;
52035;SDS011;38046;49.448;32.074;2022-09-27T11:20:52;6.60;;;5.50;;
52035;SDS011;38046;49.448;32.074;2022-09-27T11:29:27;5.63;;;4.88;;
52035;SDS011;38046;49.448;32.074;2022-09-27T11:34:30;5.53;;;4.60;;
52035;SDS011;38046;49.448;32.074;2022-09-27T11:37:11;5.25;;;4.75;;
52035;SDS011;38046;49.448;32.074;2022-09-27T11:50:31;6.10;;;4.72;;
52035;SDS011;38046;49.448;32.074;2022-09-27T12:04:18;5.20;;;4.35;;
52035;SDS011;38046;49.448;32.074;2022-09-27T12:09:34;5.30;;;4.43;;
52035;SDS011;38046;49.448;32.074;2022-09-27T12:12:09;5.47;;;4.35;;
52035;SDS011;38046;49.448;32.074;2022-09-27T12:14:46;5.07;;;4.38;;
52035;SDS011;38046;49.448;32.074;2022-09-27T12:17:20;5.78;;;4.82;;
52035;SDS011;38046;49.448;32.074;2022-09-27T12:19:52;5.95;;;4.97;;
52035;SDS011;38046;49.448;32.074;2022-09-27T12:22:25;6.20;;;4.88;;
52035;SDS011;38046;49.448;32.074;2022-09-27T12:25:13;6.55;;;5.13;;
52035;SDS011;38046;49.448;32.074;2022-09-27T12:27:44;6.68;;;5.35;;
52035;SDS011;38046;49.448;32.074;2022-09-27T12:30:14;5.80;;;4.78;;
52035;SDS011;38046;49.448;32.074;2022-09-27T12:32:50;7.57;;;4.97;;
52035;SDS011;38046;49.448;32.074;2022-09-27T12:35:18;6.53;;;5.10;;
52035;SDS011;38046;49.448;32.074;2022-09-27T12:37:54;6.65;;;5.25;;
52035;SDS011;38046;49.448;32.074;2022-09-27T12:40:32;5.90;;;4.10;;
52035;SDS011;38046;49.448;32.074;2022-09-27T12:51:15;5.85;;;4.55;;
52035;SDS011;38046;49.448;32.074;2022-09-27T12:53:49;6.53;;;5.15;;
52035;SDS011;38046;49.448;32.074;2022-09-27T13:12:50;5.45;;;4.30;;
52035;SDS011;38046;49.448;32.074;2022-09-27T13:15:24;5.90;;;4.72;;
52035;SDS011;38046;49.448;32.074;2022-09-27T13:17:57;5.85;;;4.72;;
52035;SDS011;38046;49.448;32.074;2022-09-27T13:23:01;5.90;;;4.88;;
52035;SDS011;38046;49.448;32.074;2022-09-27T13:33:45;4.60;;;3.70;;
52035;SDS011;38046;49.448;32.074;2022-09-27T13:41:32;4.70;;;3.95;;
52035;SDS011;38046;49.448;32.074;2022-09-27T13:46:43;5.43;;;4.10;;
52035;SDS011;38046;49.448;32.074;2022-09-27T13:49:20;5.60;;;3.90;;
52035;SDS011;38046;49.448;32.074;2022-09-27T13:51:58;5.32;;;4.07;;
52035;SDS011;38046;49.448;32.074;2022-09-27T14:00:11;6.07;;;4.43;;
52035;SDS011;38046;49.448;32.074;2022-09-27T14:02:52;5.18;;;4.28;;
52035;SDS011;38046;49.448;32.074;2022-09-27T14:05:27;5.57;;;4.30;;
52035;SDS011;38046;49.448;32.074;2022-09-27T14:08:06;5.43;;;4.13;;
52035;SDS011;38046;49.448;32.074;2022-09-27T14:10:48;5.63;;;4.90;;
52035;SDS011;38046;49.448;32.074;2022-09-27T14:13:16;5.05;;;4.05;;
52035;SDS011;38046;49.448;32.074;2022-09-27T14:15:44;5.13;;;4.55;;
52035;SDS011;38046;49.448;32.074;2022-09-27T14:18:10;6.05;;;4.60;;
52035;SDS011;38046;49.448;32.074;2022-09-27T14:20:42;5.30;;;4.65;;
52035;SDS011;38046;49.448;32.074;2022-09-27T14:23:23;6.22;;;4.70;;
52035;SDS011;38046;49.448;32.074;2022-09-27T14:25:51;5.68;;;4.13;;
52035;SDS011;38046;49.448;32.074;2022-09-27T14:30:45;5.40;;;4.70;;
52035;SDS011;38046;49.448;32.074;2022-09-27T14:33:27;5.70;;;4.82;;
52035;SDS011;38046;49.448;32.074;2022-09-27T14:35:55;7.38;;;4.70;;
52035;SDS011;38046;49.448;32.074;2022-09-27T14:38:39;6.25;;;4.97;;
52035;SDS011;38046;49.448;32.074;2022-09-27T14:41:06;6.30;;;4.75;;
52035;SDS011;38046;49.448;32.074;2022-09-27T14:43:34;5.53;;;4.63;;
52035;SDS011;38046;49.448;32.074;2022-09-27T14:46:05;5.30;;;4.60;;
52035;SDS011;38046;49.448;32.074;2022-09-27T14:48:32;4.97;;;3.90;;
52035;SDS011;38046;49.448;32.074;2022-09-27T14:51:01;5.05;;;4.00;;
52035;SDS011;38046;49.448;32.074;2022-09-27T14:53:29;5.68;;;4.63;;
52035;SDS011;38046;49.448;32.074;2022-09-27T14:55:56;6.45;;;5.20;;
52035;SDS011;38046;49.448;32.074;2022-09-27T14:58:22;5.28;;;4.30;;
52035;SDS011;38046;49.448;32.074;2022-09-27T15:00:50;5.75;;;4.75;;
52035;SDS011;38046;49.448;32.074;2022-09-27T15:03:23;5.20;;;4.55;;
52035;SDS011;38046;49.448;32.074;2022-09-27T15:05:54;5.25;;;4.30;;
52035;SDS011;38046;49.448;32.074;2022-09-27T15:08:22;5.07;;;3.75;;
52035;SDS011;38046;49.448;32.074;2022-09-27T15:10:49;5.13;;;3.92;;
52035;SDS011;38046;49.448;32.074;2022-09-27T15:13:15;4.63;;;4.03;;
52035;SDS011;38046;49.448;32.074;2022-09-27T15:15:43;4.20;;;3.60;;
52035;SDS011;38046;49.448;32.074;2022-09-27T15:20:56;4.85;;;4.10;;
52035;SDS011;38046;49.448;32.074;2022-09-27T15:23:34;5.57;;;4.22;;
52035;SDS011;38046;49.448;32.074;2022-09-27T15:28:35;5.15;;;4.13;;
52035;SDS011;38046;49.448;32.074;2022-09-27T15:31:05;5.65;;;4.03;;
52035;SDS011;38046;49.448;32.074;2022-09-27T15:33:32;5.32;;;3.65;;
52035;SDS011;38046;49.448;32.074;2022-09-27T15:36:00;5.15;;;3.90;;
52035;SDS011;38046;49.448;32.074;2022-09-27T15:38:39;5.07;;;3.97;;
52035;SDS011;38046;49.448;32.074;2022-09-27T15:41:12;4.63;;;3.78;;
52035;SDS011;38046;49.448;32.074;2022-09-27T15:46:23;4.57;;;3.80;;
52035;SDS011;38046;49.448;32.074;2022-09-27T15:49:13;4.53;;;3.47;;
52035;SDS011;38046;49.448;32.074;2022-09-27T15:51:40;5.32;;;4.32;;
52035;SDS011;38046;49.448;32.074;2022-09-27T15:54:07;5.63;;;4.03;;
52035;SDS011;38046;49.448;32.074;2022-09-27T15:56:32;4.35;;;3.67;;
52035;SDS011;38046;49.448;32.074;2022-09-27T15:58:59;4.65;;;3.80;;
52035;SDS011;38046;49.448;32.074;2022-09-27T16:01:25;5.35;;;3.70;;
52035;SDS011;38046;49.448;32.074;2022-09-27T16:03:51;5.00;;;4.10;;
52035;SDS011;38046;49.448;32.074;2022-09-27T16:06:16;4.60;;;3.65;;
52035;SDS011;38046;49.448;32.074;2022-09-27T16:08:43;5.32;;;3.67;;
52035;SDS011;38046;49.448;32.074;2022-09-27T16:11:11;4.68;;;3.97;;
52035;SDS011;38046;49.448;32.074;2022-09-27T16:13:39;5.60;;;4.50;;
52035;SDS011;38046;49.448;32.074;2022-09-27T16:16:04;5.20;;;4.20;;
52035;SDS011;38046;49.448;32.074;2022-09-27T16:18:30;5.10;;;4.20;;
52035;SDS011;38046;49.448;32.074;2022-09-27T16:20:58;6.07;;;4.72;;
52035;SDS011;38046;49.448;32.074;2022-09-27T16:23:24;5.30;;;4.28;;
52035;SDS011;38046;49.448;32.074;2022-09-27T16:25:53;5.82;;;4.57;;
52035;SDS011;38046;49.448;32.074;2022-09-27T16:28:18;4.97;;;3.60;;
52035;SDS011;38046;49.448;32.074;2022-09-27T16:30:44;5.68;;;4.35;;
52035;SDS011;38046;49.448;32.074;2022-09-27T16:33:10;5.70;;;4.60;;
52035;SDS011;38046;49.448;32.074;2022-09-27T16:35:37;6.13;;;4.68;;
52035;SDS011;38046;49.448;32.074;2022-09-27T16:38:05;6.15;;;4.60;;
52035;SDS011;38046;49.448;32.074;2022-09-27T16:40:31;5.22;;;4.20;;
52035;SDS011;38046;49.448;32.074;2022-09-27T16:42:56;6.20;;;4.65;;
52035;SDS011;38046;49.448;32.074;2022-09-27T16:45:22;6.95;;;5.05;;
52035;SDS011;38046;49.448;32.074;2022-09-27T16:47:55;6.95;;;5.25;;
52035;SDS011;38046;49.448;32.074;2022-09-27T16:50:21;6.80;;;5.30;;
52035;SDS011;38046;49.448;32.074;2022-09-27T16:53:05;7.38;;;5.78;;
52035;SDS011;38046;49.448;32.074;2022-09-27T16:55:30;8.00;;;5.97;;
52035;SDS011;38046;49.448;32.074;2022-09-27T16:57:57;6.88;;;5.65;;
52035;SDS011;38046;49.448;32.074;2022-09-27T17:00:23;6.40;;;5.10;;
52035;SDS011;38046;49.448;32.074;2022-09-27T17:02:49;6.47;;;4.65;;
52035;SDS011;38046;49.448;32.074;2022-09-27T17:05:14;8.10;;;5.72;;
52035;SDS011;38046;49.448;32.074;2022-09-27T17:07:40;7.85;;;5.72;;
52035;SDS011;38046;49.448;32.074;2022-09-27T17:10:06;7.03;;;5.30;;
52035;SDS011;38046;49.448;32.074;2022-09-27T17:12:32;6.88;;;5.38;;
52035;SDS011;38046;49.448;32.074;2022-09-27T17:14:58;8.23;;;6.38;;
52035;SDS011;38046;49.448;32.074;2022-09-27T17:17:24;8.63;;;6.68;;
52035;SDS011;38046;49.448;32.074;2022-09-27T17:19:50;6.85;;;5.28;;
52035;SDS011;38046;49.448;32.074;2022-09-27T17:22:16;7.75;;;6.03;;
52035;SDS011;38046;49.448;32.074;2022-09-27T17:24:42;8.88;;;6.40;;
52035;SDS011;38046;49.448;32.074;2022-09-27T17:27:08;8.38;;;6.35;;
52035;SDS011;38046;49.448;32.074;2022-09-27T17:29:33;7.47;;;6.00;;
52035;SDS011;38046;49.448;32.074;2022-09-27T17:31:59;9.32;;;6.47;;
52035;SDS011;38046;49.448;32.074;2022-09-27T17:34:25;9.57;;;6.95;;
52035;SDS011;38046;49.448;32.074;2022-09-27T17:36:51;7.32;;;5.70;;
52035;SDS011;38046;49.448;32.074;2022-09-27T17:39:18;8.43;;;6.30;;
52035;SDS011;38046;49.448;32.074;2022-09-27T17:41:45;9.15;;;6.88;;
52035;SDS011;38046;49.448;32.074;2022-09-27T17:44:13;9.75;;;7.18;;
52035;SDS011;38046;49.448;32.074;2022-09-27T17:46:40;8.40;;;6.57;;
52035;SDS011;38046;49.448;32.074;2022-09-27T17:49:06;8.35;;;6.95;;
52035;SDS011;38046;49.448;32.074;2022-09-27T17:51:52;7.68;;;6.15;;
52035;SDS011;38046;49.448;32.074;2022-09-27T17:54:19;8.82;;;6.57;;
52035;SDS011;38046;49.448;32.074;2022-09-27T17:56:47;7.90;;;5.93;;
52035;SDS011;38046;49.448;32.074;2022-09-27T17:59:13;7.97;;;6.43;;
52035;SDS011;38046;49.448;32.074;2022-09-27T18:01:40;8.10;;;6.43;;
52035;SDS011;38046;49.448;32.074;2022-09-27T18:04:08;9.75;;;6.70;;